Pemberton, MN (56078)

1:23 PM CST on February 13, 2016 (GMT -0600)
Blue Valley Sod | | Change Station
CLOSE
Current Station
Personal Weather Station
Location: Mapleton, MN
Elevation: 1014 ft
Nearby Weather Stations
Active Advisory: Winter Weather Advisory

Elev 1014 ft 43.94 °N, 93.83 °W | Updated 4 minutes ago

Overcast
Overcast
6.7 °F
Feels Like 7 °F
N
0.0
Wind Variable Wind from SSW
Gusts 5.0 mph

Today
High -- | Low -- °F
--% Chance of Precip.
Yesterday
High -- | Low -- °F
Precip. -- in
Pressure 30.53 in
Visibility 10.0 miles
Clouds Clear
Windchill 7 °F
Dew Point -1 °F
Humidity 70%
Rainfall 0.00 in
Snow Depth Not available.
7:17 AM 5:41 PM
Waxing Crescent, 33% visible
METAR KACQ 131915Z AUTO 11004KT 10SM CLR M14/M20 A3053 RMK AO2
Pressure 30.53 in
Visibility 10.0 miles
Clouds Clear
Windchill 7 °F
Dew Point -1 °F
Humidity 70%
Rainfall 0.00 in
Snow Depth Not available.
7:17 AM 5:41 PM
Waxing Crescent, 33% visible
METAR KACQ 131915Z AUTO 11004KT 10SM CLR M14/M20 A3053 RMK AO2

10-Day Weather Forecast

Almanac

Astronomy

Feb. 13, 2016 Rise Set
Actual Time
Civil Twilight
Nautical Twilight
Astronomical Twilight
Moon
Length of Visible Light
Length of Day
Tomorrow will be .
, % of the Moon is Illuminated

Today's Extremes

State Highs State Lows

Community

WunderPhotos

Upload Photos

1,892,642 photos uploaded!

WunderBlog® & News

Nearby

Air Quality

  Air Quality AQ Index Pollutant
Not available.

Snow Depth

Station Depth Elevation

Earthquake Activity

City Distance Mag. Time & Date
Minimum magnitude displayed is 2.5.

Coastal Water Temperatures

Place Temperature

Stations

Nearby Weather Stations

Station Location Temp. Windchill Dew Point Humidity Wind Precip. Elev Updated Type
                   

Watches & Warnings

Winter Weather Advisory
Issued: 7:06 AM CST Feb. 13, 2016 – National Weather Service

... Winter Weather Advisory remains in effect from 9 PM this
evening to noon CST Sunday...
... Wind Chill Advisory is cancelled...

The National Weather Service in Twin Cities/Chanhassen has
cancelled the Wind Chill Advisory. A Winter Weather Advisory
remains in effect from 9 PM this evening to noon CST Sunday.

* Expect snow to develop around 9 PM and then diminish around
noon Sunday.

* The heaviest snowfall rates will occur between midnight and 6
am Sunday.

* Total snow accumulations of 3 to 6 inches are expected.

* Look for reduced visibilities at times.

* Plan on slippery Road conditions.

Precautionary/preparedness actions...

A Winter Weather Advisory for snow means periods of snow will
cause primarily travel difficulties. Be prepared for snow covered
roads and limited visibilities... and use caution while driving.
The latest Road conditions for the state you are calling from can
be obtained by calling 5 1 1.